createdAt,value
2022-10-26T00:01:29.985Z,98047.66
2022-10-26T00:03:31.382Z,98040.66
2022-10-26T00:05:32.692Z,98043.38
2022-10-26T00:07:34.227Z,98037.00
2022-10-26T00:09:35.497Z,98034.31
2022-10-26T00:11:36.823Z,98033.41
2022-10-26T00:13:38.157Z,98040.34
2022-10-26T00:15:39.437Z,98042.91
2022-10-26T00:17:40.755Z,98048.09
2022-10-26T00:19:42.035Z,98040.50
2022-10-26T00:21:43.363Z,98038.06
2022-10-26T00:23:44.744Z,98044.09
2022-10-26T00:25:46.007Z,98042.47
2022-10-26T00:27:47.549Z,98039.97
2022-10-26T00:29:49.007Z,98037.47
2022-10-26T00:31:50.309Z,98040.16
2022-10-26T00:33:51.573Z,98035.00
2022-10-26T00:35:52.838Z,98035.06
2022-10-26T00:37:54.120Z,98037.56
2022-10-26T00:39:55.399Z,98031.69
2022-10-26T00:41:56.706Z,98030.06
2022-10-26T00:43:57.983Z,98028.44
2022-10-26T00:45:59.247Z,98032.75
2022-10-26T00:48:00.550Z,98033.59
2022-10-26T00:50:01.830Z,98032.75
2022-10-26T00:52:03.159Z,98026.84
2022-10-26T00:54:04.457Z,98031.94
2022-10-26T00:56:06.395Z,98037.84
2022-10-26T00:58:07.663Z,98029.28
2022-10-26T01:00:08.943Z,98035.25
2022-10-26T01:02:10.218Z,98032.81
2022-10-26T01:04:11.486Z,98028.56
2022-10-26T01:06:12.779Z,98025.25
2022-10-26T01:08:14.096Z,98027.81
2022-10-26T01:10:15.405Z,98029.47
2022-10-26T01:12:16.718Z,98031.34
2022-10-26T01:14:18.424Z,98024.66
2022-10-26T01:16:19.699Z,98028.13
2022-10-26T01:18:20.966Z,98023.03
2022-10-26T01:20:22.274Z,98034.97
2022-10-26T01:22:23.573Z,98028.19
2022-10-26T01:24:24.899Z,98029.06
2022-10-26T01:26:26.239Z,98030.91
2022-10-26T01:28:27.526Z,98031.72
2022-10-26T01:30:28.862Z,98027.38
2022-10-26T01:32:30.118Z,98030.00
2022-10-26T01:34:31.399Z,98023.22
2022-10-26T01:38:38.873Z,98025.81
2022-10-26T01:40:40.185Z,98024.16
2022-10-26T01:42:41.450Z,98023.38
2022-10-26T01:44:43.012Z,98022.56
2022-10-26T01:46:44.391Z,98014.13
2022-10-26T01:48:45.714Z,98016.69
2022-10-26T01:50:47.035Z,98017.53
2022-10-26T01:52:48.310Z,98012.50
2022-10-26T01:54:49.589Z,98011.69
2022-10-26T01:56:50.849Z,98008.28
2022-10-26T01:58:52.167Z,98006.59
2022-10-26T02:00:53.459Z,98011.75
2022-10-26T02:02:54.950Z,98011.75
2022-10-26T02:04:56.266Z,98014.31
2022-10-26T02:06:57.533Z,98008.41
2022-10-26T02:08:58.810Z,98013.56
2022-10-26T02:11:00.124Z,98007.59
2022-10-26T02:13:01.440Z,98013.56
2022-10-26T02:15:02.768Z,98009.25
2022-10-26T02:17:04.030Z,98008.34
2022-10-26T02:19:05.469Z,98013.47
2022-10-26T02:21:06.795Z,98014.31
2022-10-26T02:23:08.076Z,98009.25
2022-10-26T02:25:09.407Z,98006.81
2022-10-26T02:27:10.699Z,98005.97
2022-10-26T02:29:11.981Z,98005.13
2022-10-26T02:31:13.256Z,98015.34
2022-10-26T02:33:14.818Z,98014.53
2022-10-26T02:35:16.081Z,98018.78
2022-10-26T02:37:17.361Z,98016.19
2022-10-26T02:39:18.714Z,98006.72
2022-10-26T02:41:19.985Z,98014.31
2022-10-26T02:43:22.325Z,98017.63
2022-10-26T02:45:23.710Z,98020.16
2022-10-26T02:47:26.234Z,98015.81
2022-10-26T02:49:27.556Z,98009.78
2022-10-26T02:51:28.857Z,98010.59
2022-10-26T02:53:30.538Z,98009.75
2022-10-26T02:55:31.889Z,98010.59
2022-10-26T02:57:33.152Z,98010.59
2022-10-26T02:59:34.462Z,98012.19
2022-10-26T03:01:35.804Z,97883.94
2022-10-26T03:03:37.155Z,98016.72
2022-10-26T03:05:38.644Z,98013.44
2022-10-26T03:07:39.938Z,98011.84
2022-10-26T03:09:41.214Z,98005.13
2022-10-26T03:11:42.539Z,98013.69
2022-10-26T03:13:43.830Z,98013.78
2022-10-26T03:15:45.139Z,98016.34
2022-10-26T03:17:46.666Z,98023.22
2022-10-26T03:19:48.154Z,98022.34
2022-10-26T03:21:50.649Z,98019.84
2022-10-26T03:23:52.031Z,98009.66
2022-10-26T03:25:53.301Z,98017.34
2022-10-26T03:27:54.592Z,98020.78
2022-10-26T03:29:55.909Z,98006.31
2022-10-26T03:31:57.194Z,98004.66
2022-10-26T03:33:58.503Z,98013.22
2022-10-26T03:35:59.817Z,98008.13
2022-10-26T03:38:01.150Z,98019.22
2022-10-26T03:40:02.461Z,98016.72
2022-10-26T03:42:03.729Z,98009.06
2022-10-26T03:44:04.997Z,98011.63
2022-10-26T03:46:06.277Z,98009.97
2022-10-26T03:48:07.606Z,98011.72
2022-10-26T03:50:08.903Z,98007.44
2022-10-26T03:52:10.195Z,98007.44
2022-10-26T03:54:11.557Z,98009.97
2022-10-26T03:56:12.898Z,98014.28
2022-10-26T03:58:14.264Z,98002.38
2022-10-26T04:00:15.588Z,98010.91
2022-10-26T04:02:17.429Z,98014.34
2022-10-26T04:04:18.776Z,98005.03
2022-10-26T04:06:20.155Z,98002.38
2022-10-26T04:08:21.415Z,98008.28
2022-10-26T04:10:22.750Z,98013.38
2022-10-26T04:12:24.019Z,98004.03
2022-10-26T04:14:25.314Z,98013.38
2022-10-26T04:16:30.963Z,98009.19
2022-10-26T04:18:34.617Z,98004.94
2022-10-26T04:20:36.749Z,98006.63
2022-10-26T04:22:38.595Z,98001.59
2022-10-26T04:24:39.883Z,98020.28
2022-10-26T04:26:41.191Z,98005.00
2022-10-26T04:28:42.454Z,98008.38
2022-10-26T04:30:43.771Z,98011.72
2022-10-26T04:32:45.064Z,98012.47
2022-10-26T04:34:46.337Z,98014.06
2022-10-26T04:36:47.652Z,98019.00
2022-10-26T04:38:49.025Z,98015.44
2022-10-26T04:40:50.290Z,98023.00
2022-10-26T04:42:51.959Z,98019.41
2022-10-26T04:44:53.454Z,98009.06
2022-10-26T04:46:54.712Z,98009.03
2022-10-26T04:48:55.988Z,98016.63
2022-10-26T04:50:57.314Z,98010.59
2022-10-26T04:52:58.602Z,98001.31
2022-10-26T04:54:59.943Z,97998.75
2022-10-26T04:57:01.258Z,97999.72
2022-10-26T04:59:02.532Z,98012.53
2022-10-26T05:01:03.965Z,98006.63
2022-10-26T05:03:05.315Z,98007.50
2022-10-26T05:05:08.796Z,98002.44
2022-10-26T05:07:12.555Z,98000.75
2022-10-26T05:09:13.858Z,98001.66
2022-10-26T05:11:15.147Z,98003.41
2022-10-26T05:13:16.441Z,98000.06
2022-10-26T05:15:17.839Z,98003.47
2022-10-26T05:17:19.110Z,97995.88
2022-10-26T05:19:20.387Z,97995.94
2022-10-26T05:21:22.691Z,98000.19
2022-10-26T05:23:24.002Z,97999.44
2022-10-26T05:25:28.355Z,98000.28
2022-10-26T05:27:29.687Z,97991.84
2022-10-26T05:29:30.980Z,98001.22
2022-10-26T05:31:32.254Z,98002.13
2022-10-26T05:33:33.595Z,98003.81
2022-10-26T05:35:35.050Z,98005.56
2022-10-26T05:37:36.531Z,98009.03
2022-10-26T05:39:37.851Z,98015.88
2022-10-26T05:41:39.127Z,98009.97
2022-10-26T05:43:40.388Z,98013.44
2022-10-26T05:47:43.028Z,98017.75
2022-10-26T05:49:44.298Z,98013.56
2022-10-26T05:51:45.617Z,98021.25
2022-10-26T05:53:47.134Z,98021.25
2022-10-26T05:55:48.454Z,98022.13
2022-10-26T05:57:49.874Z,98021.31
2022-10-26T05:59:51.386Z,98023.00
2022-10-26T06:01:52.799Z,98028.16
2022-10-26T06:03:54.166Z,98034.13
2022-10-26T06:05:55.482Z,98039.25
2022-10-26T06:07:56.775Z,98038.38
2022-10-26T06:09:58.046Z,98035.00
2022-10-26T06:11:59.328Z,98030.78
2022-10-26T06:14:01.293Z,98029.94
2022-10-26T06:16:02.603Z,98038.44
2022-10-26T06:18:04.546Z,98046.09
2022-10-26T06:20:05.883Z,98035.94
2022-10-26T06:22:07.209Z,98044.44
2022-10-26T06:24:08.511Z,98041.03
2022-10-26T06:26:09.795Z,98046.13
2022-10-26T06:28:11.078Z,98049.47
2022-10-26T06:30:12.545Z,98048.63
2022-10-26T06:32:13.891Z,98053.69
2022-10-26T06:34:15.187Z,98062.06
2022-10-26T06:36:16.514Z,98059.34
2022-10-26T06:38:17.785Z,98061.78
2022-10-26T06:40:19.116Z,98052.25
2022-10-26T06:42:20.584Z,98064.84
2022-10-26T06:44:22.326Z,98055.31
2022-10-26T06:46:23.651Z,98064.72
2022-10-26T06:48:24.972Z,98065.47
2022-10-26T06:50:26.282Z,98069.84
2022-10-26T06:52:27.595Z,98063.13
2022-10-26T06:54:28.867Z,98071.72
2022-10-26T06:56:30.139Z,98053.25
2022-10-26T06:58:31.522Z,98057.56
2022-10-26T07:02:39.061Z,98059.34
2022-10-26T07:04:40.402Z,98062.81
2022-10-26T07:06:41.723Z,98057.78
2022-10-26T07:08:43.039Z,98062.94
2022-10-26T07:10:44.731Z,98063.00
2022-10-26T07:12:46.214Z,98063.06
2022-10-26T07:14:48.058Z,98060.53
2022-10-26T07:16:49.363Z,98070.78
2022-10-26T07:18:51.107Z,98075.09
2022-10-26T07:20:52.453Z,98075.16
2022-10-26T07:22:53.721Z,98062.47
2022-10-26T07:24:57.026Z,98065.09
2022-10-26T07:27:00.545Z,98065.97
2022-10-26T07:29:01.870Z,98071.97
2022-10-26T07:31:05.528Z,98069.44
2022-10-26T07:33:06.814Z,98076.22
2022-10-26T07:35:08.110Z,98082.22
2022-10-26T07:37:09.443Z,98084.81
2022-10-26T07:39:10.780Z,98075.53
2022-10-26T07:41:12.266Z,98070.47
2022-10-26T07:43:13.541Z,98086.63
2022-10-26T07:45:14.826Z,98080.69
2022-10-26T07:47:16.164Z,98088.34
2022-10-26T07:49:19.570Z,98078.19
2022-10-26T07:51:21.235Z,98088.41
2022-10-26T07:53:27.528Z,98085.84
2022-10-26T07:55:29.202Z,98079.06
2022-10-26T07:57:30.496Z,98085.00
2022-10-26T07:59:31.792Z,98091.81
2022-10-26T08:01:33.205Z,97941.13
2022-10-26T08:03:34.661Z,98088.34
2022-10-26T08:05:35.950Z,98085.78
2022-10-26T08:07:37.237Z,98085.75
2022-10-26T08:09:38.573Z,98089.03
2022-10-26T08:11:39.839Z,98094.78
2022-10-26T08:13:41.200Z,98093.84
2022-10-26T08:15:42.735Z,98097.22
2022-10-26T08:17:44.013Z,98093.75
2022-10-26T08:19:45.291Z,98093.69
2022-10-26T08:21:46.571Z,98094.78
2022-10-26T08:23:48.035Z,98096.41
2022-10-26T08:25:49.333Z,98093.28
2022-10-26T08:27:50.635Z,98104.00
2022-10-26T08:29:51.927Z,98096.16
2022-10-26T08:31:53.321Z,98102.25
2022-10-26T08:33:54.610Z,98104.81
2022-10-26T08:35:55.895Z,98102.38
2022-10-26T08:37:57.205Z,98109.03
2022-10-26T08:40:00.719Z,98110.78
2022-10-26T08:42:04.247Z,98103.16
2022-10-26T08:44:05.852Z,98114.03
2022-10-26T08:46:09.367Z,98108.72
2022-10-26T08:48:10.703Z,98110.91
2022-10-26T08:50:11.978Z,98107.34
2022-10-26T08:52:13.244Z,98111.91
2022-10-26T08:54:14.637Z,98117.22
2022-10-26T08:56:15.923Z,98026.53
2022-10-26T09:00:18.591Z,98103.72
2022-10-26T09:02:19.914Z,98111.41
2022-10-26T09:04:21.544Z,98114.06
2022-10-26T09:06:22.804Z,98119.19
2022-10-26T09:08:24.106Z,98123.44
2022-10-26T09:12:33.745Z,98129.13
2022-10-26T09:14:36.482Z,98124.97
2022-10-26T09:16:37.823Z,98127.34
2022-10-26T09:18:39.128Z,98126.94
2022-10-26T09:20:40.465Z,98129.88
2022-10-26T09:22:41.927Z,98118.84
2022-10-26T09:24:43.383Z,98122.31
2022-10-26T09:26:44.655Z,98125.16
2022-10-26T09:28:45.967Z,98131.31
2022-10-26T09:30:47.293Z,98117.81
2022-10-26T09:32:48.627Z,98121.19
2022-10-26T09:34:50.047Z,98123.81
2022-10-26T09:36:51.343Z,98124.84
2022-10-26T09:38:52.664Z,98124.94
2022-10-26T09:40:53.937Z,98126.53
2022-10-26T09:42:55.271Z,98133.13
2022-10-26T09:44:56.570Z,98131.31
2022-10-26T09:46:57.847Z,98132.25
2022-10-26T09:48:59.185Z,98129.81
2022-10-26T09:51:03.708Z,98135.84
2022-10-26T09:53:06.210Z,98132.44
2022-10-26T09:55:07.504Z,98129.97
2022-10-26T09:57:09.040Z,98133.34
2022-10-26T09:59:10.330Z,98130.88
2022-10-26T10:01:11.662Z,98141.19
2022-10-26T10:03:13.031Z,98133.56
2022-10-26T10:05:23.061Z,98139.50
2022-10-26T10:07:28.755Z,98137.75
2022-10-26T10:09:30.045Z,98135.91
2022-10-26T10:11:31.330Z,98141.78
2022-10-26T10:13:32.658Z,98137.44
2022-10-26T10:15:33.935Z,98130.63
2022-10-26T10:17:35.399Z,98127.31
2022-10-26T10:19:36.669Z,98125.78
2022-10-26T10:21:38.002Z,98135.31
2022-10-26T10:23:39.277Z,98133.75
2022-10-26T10:25:42.014Z,98133.91
2022-10-26T10:27:43.275Z,98132.28
2022-10-26T10:29:44.755Z,98129.13
2022-10-26T10:31:46.048Z,98123.66
2022-10-26T10:33:49.249Z,98124.44
2022-10-26T10:35:50.615Z,98116.59
2022-10-26T10:37:51.952Z,98126.56
2022-10-26T10:39:53.225Z,98117.91
2022-10-26T10:41:54.563Z,98116.13
2022-10-26T10:43:55.995Z,98114.34
2022-10-26T10:45:59.560Z,98116.81
2022-10-26T10:48:01.226Z,98117.63
2022-10-26T10:50:02.526Z,98110.81
2022-10-26T10:52:03.803Z,98113.63
2022-10-26T10:54:05.065Z,98153.06
2022-10-26T10:56:09.143Z,98105.38
2022-10-26T10:58:12.760Z,98115.38
2022-10-26T11:00:14.139Z,98115.91
2022-10-26T11:02:15.585Z,98120.84
2022-10-26T11:04:17.037Z,98116.53
2022-10-26T11:06:18.338Z,98122.59
2022-10-26T11:08:19.628Z,98119.25
2022-10-26T11:10:20.913Z,98112.38
2022-10-26T11:12:22.308Z,98108.13
2022-10-26T11:14:23.618Z,98115.66
2022-10-26T11:16:24.931Z,98115.63
2022-10-26T11:18:26.210Z,98112.28
2022-10-26T11:20:27.507Z,98112.13
2022-10-26T11:22:28.780Z,98105.78
2022-10-26T11:24:30.090Z,98109.28
2022-10-26T11:26:31.349Z,98109.50
2022-10-26T11:28:32.917Z,98113.06
2022-10-26T11:30:34.190Z,98107.22
2022-10-26T11:32:35.458Z,98112.41
2022-10-26T11:34:36.777Z,98101.44
2022-10-26T11:36:38.055Z,98107.59
2022-10-26T11:38:46.298Z,98100.78
2022-10-26T11:40:54.871Z,98105.88
2022-10-26T11:42:56.183Z,98109.34
2022-10-26T11:44:57.445Z,98105.94
2022-10-26T11:46:58.740Z,98109.34
2022-10-26T11:49:00.031Z,98106.84
2022-10-26T11:51:01.383Z,98111.13
2022-10-26T11:53:02.665Z,98109.41
2022-10-26T11:55:04.935Z,98110.34
2022-10-26T11:57:06.366Z,98112.94
2022-10-26T11:59:07.702Z,98110.50
2022-10-26T12:01:09.040Z,98115.66
2022-10-26T12:03:10.439Z,98114.09
2022-10-26T12:05:11.690Z,98106.56
2022-10-26T12:07:12.963Z,98107.59
2022-10-26T12:09:14.275Z,98113.69
2022-10-26T12:11:15.546Z,98109.63
2022-10-26T12:13:16.820Z,98108.88
2022-10-26T12:15:18.213Z,98102.97
2022-10-26T12:17:19.489Z,98106.31
2022-10-26T12:19:20.816Z,98105.31
2022-10-26T12:21:22.164Z,98104.16
2022-10-26T12:23:40.522Z,98103.94
2022-10-26T12:25:47.539Z,98107.09
2022-10-26T12:29:55.009Z,98110.16
2022-10-26T12:31:57.192Z,98113.56
2022-10-26T12:33:58.515Z,98108.56
2022-10-26T12:35:59.834Z,98112.94
2022-10-26T12:38:01.226Z,98119.97
2022-10-26T12:40:02.527Z,98120.16
2022-10-26T12:42:03.841Z,98121.88
2022-10-26T12:44:08.991Z,98121.88
2022-10-26T12:46:11.337Z,98121.88
2022-10-26T12:48:27.592Z,98120.13
2022-10-26T12:50:33.970Z,98117.59
2022-10-26T12:52:35.251Z,98118.44
2022-10-26T12:54:36.531Z,98113.28
2022-10-26T12:56:37.813Z,98120.03
2022-10-26T12:58:39.387Z,97977.03
2022-10-26T13:00:40.661Z,98114.06
2022-10-26T13:02:41.942Z,98114.88
2022-10-26T13:04:43.241Z,98108.00
2022-10-26T13:06:44.495Z,98114.94
2022-10-26T13:08:45.803Z,98114.28
2022-10-26T13:10:47.270Z,98114.50
2022-10-26T13:12:48.779Z,98110.34
2022-10-26T13:14:50.163Z,98111.38
2022-10-26T13:16:51.642Z,98109.88
2022-10-26T13:18:52.930Z,98114.25
2022-10-26T13:20:54.238Z,98110.13
2022-10-26T13:22:55.740Z,98114.44
2022-10-26T13:24:59.044Z,98107.66
2022-10-26T13:27:00.314Z,98104.28
2022-10-26T13:29:01.603Z,98110.19
2022-10-26T13:31:02.879Z,98111.09
2022-10-26T13:33:04.204Z,98123.06
2022-10-26T13:35:05.475Z,98113.81
2022-10-26T13:37:06.755Z,98118.16
2022-10-26T13:39:08.031Z,98115.69
2022-10-26T13:41:09.411Z,98117.44
2022-10-26T13:43:10.687Z,98125.13
2022-10-26T13:45:11.982Z,98120.91
2022-10-26T13:47:13.269Z,98129.47
2022-10-26T13:49:14.558Z,98125.22
2022-10-26T13:51:15.957Z,98025.94
2022-10-26T13:53:17.241Z,98122.75
2022-10-26T13:55:18.666Z,98122.78
2022-10-26T13:57:19.987Z,98125.34
2022-10-26T13:59:21.273Z,98126.25
2022-10-26T14:01:23.152Z,98128.84
2022-10-26T14:03:24.513Z,98132.28
2022-10-26T14:05:25.780Z,98133.16
2022-10-26T14:07:27.060Z,98131.47
2022-10-26T14:09:28.339Z,98142.53
2022-10-26T14:11:32.307Z,98141.69
2022-10-26T14:13:33.610Z,98145.09
2022-10-26T14:15:34.913Z,98138.28
2022-10-26T14:17:36.242Z,98151.03
2022-10-26T14:19:37.538Z,98142.53
2022-10-26T14:21:38.852Z,98143.38
2022-10-26T14:23:40.144Z,98146.78
2022-10-26T14:25:57.943Z,98144.22
2022-10-26T14:28:00.171Z,98151.94
2022-10-26T14:30:21.682Z,98146.88
2022-10-26T14:32:23.805Z,98148.56
2022-10-26T14:34:25.129Z,98142.66
2022-10-26T14:36:26.414Z,98145.25
2022-10-26T14:38:27.759Z,98138.44
2022-10-26T14:40:29.067Z,98132.53
2022-10-26T14:42:30.502Z,98138.50
2022-10-26T14:44:32.253Z,98142.72
2022-10-26T14:46:34.422Z,98136.72
2022-10-26T14:48:35.704Z,98140.91
2022-10-26T14:50:37.479Z,98140.88
2022-10-26T14:52:38.754Z,98151.03
2022-10-26T14:54:40.263Z,98140.03
2022-10-26T14:56:41.636Z,98143.41
2022-10-26T14:58:42.933Z,98150.22
2022-10-26T15:00:44.889Z,98151.94
2022-10-26T15:02:46.270Z,98155.31
2022-10-26T15:04:47.648Z,98157.84
2022-10-26T15:06:49.004Z,98164.63
2022-10-26T15:08:56.913Z,98159.53
2022-10-26T15:10:58.718Z,98158.72
2022-10-26T15:12:59.978Z,98156.13
2022-10-26T15:15:06.534Z,98158.72
2022-10-26T15:17:08.038Z,98157.03
2022-10-26T15:19:09.356Z,98168.91
2022-10-26T15:21:10.659Z,98170.63
2022-10-26T15:23:11.907Z,98172.34
2022-10-26T15:25:13.227Z,98174.91
2022-10-26T15:27:17.337Z,98174.09
2022-10-26T15:29:21.740Z,98163.91
2022-10-26T15:31:22.999Z,98166.41
2022-10-26T15:33:24.296Z,98171.56
2022-10-26T15:35:25.702Z,98166.47
2022-10-26T15:37:26.990Z,98169.91
2022-10-26T15:39:28.270Z,98172.44
2022-10-26T15:41:29.636Z,98170.75
2022-10-26T15:43:30.919Z,98173.34
2022-10-26T15:45:33.087Z,98170.78
2022-10-26T15:47:34.611Z,98184.34
2022-10-26T15:49:35.923Z,98185.19
2022-10-26T15:51:37.199Z,98186.84
2022-10-26T15:53:38.511Z,98048.81
2022-10-26T15:55:39.803Z,98185.19
2022-10-26T15:57:41.239Z,98190.28
2022-10-26T15:59:42.633Z,98196.25
2022-10-26T16:01:44.075Z,98192.84
2022-10-26T16:03:45.634Z,98200.50
2022-10-26T16:05:46.918Z,98202.22
2022-10-26T16:07:48.529Z,98199.69
2022-10-26T16:09:50.429Z,98196.28
2022-10-26T16:11:51.781Z,98197.94
2022-10-26T16:13:53.816Z,98192.91
2022-10-26T16:15:56.526Z,98206.47
2022-10-26T16:17:57.883Z,98203.09
2022-10-26T16:20:00.022Z,98209.03
2022-10-26T16:22:01.297Z,98207.38
2022-10-26T16:24:02.619Z,98202.28
2022-10-26T16:26:03.883Z,98209.06
2022-10-26T16:28:05.160Z,98210.78
2022-10-26T16:30:06.443Z,98203.13
2022-10-26T16:32:07.722Z,98208.22
2022-10-26T16:34:09.032Z,98209.91
2022-10-26T16:36:10.314Z,98209.06
2022-10-26T16:38:11.660Z,98210.78
2022-10-26T16:40:12.969Z,98207.38
2022-10-26T16:42:14.606Z,98218.47
2022-10-26T16:44:15.878Z,98214.25
2022-10-26T16:46:17.205Z,98213.41
2022-10-26T16:48:18.483Z,98226.13
2022-10-26T16:50:22.076Z,98221.03
2022-10-26T16:52:26.074Z,98220.22
2022-10-26T16:54:30.976Z,98221.09
2022-10-26T16:56:32.287Z,98221.94
2022-10-26T16:58:36.819Z,98216.00
2022-10-26T17:00:38.894Z,98223.63
2022-10-26T17:02:40.282Z,98222.81
2022-10-26T17:04:41.730Z,98226.19
2022-10-26T17:06:45.939Z,98233.81
2022-10-26T17:08:47.263Z,98227.91
2022-10-26T17:10:51.379Z,98233.84
2022-10-26T17:12:52.844Z,98238.97
2022-10-26T17:14:56.262Z,98229.63
2022-10-26T17:16:57.539Z,98234.72
2022-10-26T17:18:58.815Z,98233.88
2022-10-26T17:21:00.123Z,98240.66
2022-10-26T17:23:01.407Z,98239.00
2022-10-26T17:25:02.730Z,98239.84
2022-10-26T17:27:04.055Z,98251.75
2022-10-26T17:29:05.372Z,98258.53
2022-10-26T17:31:06.728Z,98252.63
2022-10-26T17:33:08.373Z,98254.28
2022-10-26T17:35:09.662Z,98258.53
2022-10-26T17:37:10.947Z,98267.03
2022-10-26T17:39:12.220Z,98265.34
2022-10-26T17:41:13.572Z,98268.75
2022-10-26T17:43:14.866Z,98274.69
2022-10-26T17:45:17.223Z,98283.16
2022-10-26T17:47:18.525Z,98279.75
2022-10-26T17:49:23.495Z,98284.88
2022-10-26T17:51:27.701Z,98284.03
2022-10-26T17:53:28.975Z,98287.44
2022-10-26T17:55:30.254Z,98288.31
2022-10-26T17:57:31.513Z,98288.28
2022-10-26T17:59:32.846Z,98284.88
2022-10-26T18:01:34.290Z,98285.75
2022-10-26T18:03:35.838Z,98285.72
2022-10-26T18:05:37.222Z,98283.19
2022-10-26T18:07:38.523Z,98284.03
2022-10-26T18:09:39.798Z,98289.97
2022-10-26T18:11:41.087Z,98290.88
2022-10-26T18:13:42.389Z,98290.84
2022-10-26T18:15:43.662Z,98295.97
2022-10-26T18:17:45.511Z,98298.50
2022-10-26T18:19:46.837Z,98298.50
2022-10-26T18:21:48.179Z,98306.13
2022-10-26T18:23:55.320Z,98306.97
2022-10-26T18:25:56.591Z,98309.53
2022-10-26T18:27:57.936Z,98310.41
2022-10-26T18:29:59.265Z,98314.66
2022-10-26T18:32:00.549Z,98313.78
2022-10-26T18:34:01.831Z,98325.69
2022-10-26T18:36:04.491Z,98324.00
2022-10-26T18:38:05.843Z,98326.56
2022-10-26T18:40:09.794Z,98325.72
2022-10-26T18:42:11.090Z,98327.38
2022-10-26T18:44:12.419Z,98328.25
2022-10-26T18:46:17.551Z,98329.97
2022-10-26T18:48:21.947Z,98329.13
2022-10-26T18:50:23.436Z,98332.53
2022-10-26T18:52:27.126Z,98342.72
2022-10-26T18:54:30.993Z,98330.81
2022-10-26T18:56:33.164Z,98338.47
2022-10-26T18:58:34.421Z,98338.47
2022-10-26T19:00:35.759Z,98339.31
2022-10-26T19:02:37.079Z,98333.38
2022-10-26T19:04:38.364Z,98344.41
2022-10-26T19:06:39.686Z,98346.97
2022-10-26T19:08:41.002Z,98357.16
2022-10-26T19:10:42.407Z,98355.50
2022-10-26T19:12:46.725Z,98343.56
2022-10-26T19:14:48.029Z,98351.25
2022-10-26T19:16:49.298Z,98351.22
2022-10-26T19:20:59.583Z,98358.91
2022-10-26T19:23:00.847Z,98363.16
2022-10-26T19:25:03.831Z,98359.81
2022-10-26T19:27:05.173Z,98369.13
2022-10-26T19:29:06.626Z,98377.66
2022-10-26T19:31:07.911Z,98378.50
2022-10-26T19:33:09.214Z,98384.47
2022-10-26T19:35:10.482Z,98387.00
2022-10-26T19:37:11.742Z,98383.63
2022-10-26T19:39:13.010Z,98387.84
2022-10-26T19:41:14.489Z,98394.63
2022-10-26T19:43:17.004Z,98391.22
2022-10-26T19:45:18.298Z,98392.91
2022-10-26T19:47:20.100Z,98393.75
2022-10-26T19:49:27.488Z,98402.22
2022-10-26T19:51:28.822Z,98397.94
2022-10-26T19:53:30.135Z,98400.50
2022-10-26T19:55:31.404Z,98405.59
2022-10-26T19:57:32.695Z,98406.41
2022-10-26T19:59:34.025Z,98408.94
2022-10-26T20:01:35.393Z,98413.19
2022-10-26T20:03:36.750Z,98416.59
2022-10-26T20:05:38.025Z,98411.50
2022-10-26T20:07:39.303Z,98416.59
2022-10-26T20:09:40.600Z,98426.78
2022-10-26T20:11:43.092Z,98425.13
2022-10-26T20:13:44.572Z,98426.78
2022-10-26T20:15:45.883Z,98425.13
2022-10-26T20:17:47.172Z,98428.53
2022-10-26T20:19:48.458Z,98426.00
2022-10-26T20:21:49.715Z,98433.63
2022-10-26T20:23:51.115Z,98424.28
2022-10-26T20:25:52.487Z,98428.53
2022-10-26T20:27:53.774Z,98432.75
2022-10-26T20:29:55.070Z,98431.94
2022-10-26T20:31:58.337Z,98434.50
2022-10-26T20:33:59.654Z,98435.34
2022-10-26T20:36:00.930Z,98420.09
2022-10-26T20:38:02.199Z,98431.97
2022-10-26T20:40:03.495Z,98437.06
2022-10-26T20:42:04.813Z,98439.63
2022-10-26T20:44:06.088Z,98435.41
2022-10-26T20:46:07.373Z,98432.84
2022-10-26T20:48:09.610Z,98432.03
2022-10-26T20:50:10.880Z,98437.97
2022-10-26T20:52:21.496Z,98434.56
2022-10-26T20:54:23.176Z,98440.53
2022-10-26T20:56:24.561Z,98431.22
2022-10-26T20:58:25.834Z,98432.91
2022-10-26T21:00:27.102Z,98438.00
2022-10-26T21:02:29.247Z,98441.44
2022-10-26T21:04:30.530Z,98453.28
2022-10-26T21:06:40.125Z,98433.78
2022-10-26T21:08:41.690Z,98441.44
2022-10-26T21:10:42.959Z,98440.56
2022-10-26T21:12:45.406Z,98441.41
2022-10-26T21:14:46.706Z,98449.91
2022-10-26T21:16:47.983Z,98446.50
2022-10-26T21:18:49.297Z,98447.75
2022-10-26T21:20:50.582Z,98447.22
2022-10-26T21:22:51.889Z,98444.94
2022-10-26T21:24:53.192Z,98452.31
2022-10-26T21:26:54.470Z,98451.25
2022-10-26T21:28:55.782Z,98450.16
2022-10-26T21:30:57.136Z,98456.94
2022-10-26T21:32:58.424Z,98461.19
2022-10-26T21:34:59.731Z,98461.81
2022-10-26T21:37:01.054Z,98460.59
2022-10-26T21:39:02.438Z,98463.03
2022-10-26T21:41:04.199Z,98471.47
2022-10-26T21:43:05.490Z,98477.91
2022-10-26T21:45:06.769Z,98470.53
2022-10-26T21:47:08.061Z,98484.09
2022-10-26T21:49:12.051Z,98472.28
2022-10-26T21:51:13.384Z,98474.59
2022-10-26T21:53:14.673Z,98476.59
2022-10-26T21:55:15.990Z,98477.59
2022-10-26T21:57:17.250Z,98475.00
2022-10-26T21:59:18.545Z,98477.59
2022-10-26T22:01:19.944Z,98473.97
2022-10-26T22:03:21.403Z,98479.25
2022-10-26T22:05:22.702Z,98479.13
2022-10-26T22:07:24.083Z,98481.25
2022-10-26T22:09:25.374Z,98479.31
2022-10-26T22:11:26.710Z,98472.72
2022-10-26T22:13:28.697Z,98486.38
2022-10-26T22:15:29.975Z,98482.50
2022-10-26T22:17:31.250Z,98483.50
2022-10-26T22:19:32.531Z,98482.69
2022-10-26T22:21:34.285Z,98481.03
2022-10-26T22:23:35.654Z,98484.50
2022-10-26T22:25:36.922Z,98481.13
2022-10-26T22:27:38.198Z,98485.38
2022-10-26T22:29:39.497Z,98476.63
2022-10-26T22:31:40.937Z,98481.78
2022-10-26T22:33:42.282Z,98484.03
2022-10-26T22:35:44.575Z,98482.88
2022-10-26T22:37:45.857Z,98488.31
2022-10-26T22:41:49.450Z,98490.88
2022-10-26T22:43:53.838Z,98486.44
2022-10-26T22:45:55.124Z,98483.75
2022-10-26T22:47:56.520Z,98482.00
2022-10-26T22:49:57.826Z,98483.63
2022-10-26T22:51:59.099Z,98485.94
2022-10-26T22:54:00.443Z,98488.31
2022-10-26T22:56:01.741Z,98488.53
2022-10-26T22:58:03.046Z,98487.00
2022-10-26T23:00:04.365Z,98482.44
2022-10-26T23:02:05.772Z,98492.22
2022-10-26T23:04:07.191Z,98489.47
2022-10-26T23:06:08.507Z,98490.22
2022-10-26T23:08:09.787Z,98497.91
2022-10-26T23:10:11.062Z,98496.16
2022-10-26T23:12:12.381Z,98498.72
2022-10-26T23:14:13.670Z,98502.06
2022-10-26T23:16:14.983Z,98504.94
2022-10-26T23:18:16.493Z,98497.25
2022-10-26T23:20:17.755Z,98497.31
2022-10-26T23:22:19.083Z,98499.06
2022-10-26T23:24:20.374Z,98504.25
2022-10-26T23:26:21.862Z,98511.13
2022-10-26T23:28:23.134Z,98521.06
2022-10-26T23:30:24.475Z,98518.91
2022-10-26T23:32:27.027Z,98517.84
2022-10-26T23:34:28.358Z,98519.13
2022-10-26T23:36:29.635Z,98520.56
2022-10-26T23:38:30.955Z,98517.00
2022-10-26T23:40:32.266Z,98521.16
2022-10-26T23:42:33.538Z,98532.13
2022-10-26T23:44:34.817Z,98522.72
2022-10-26T23:46:36.122Z,98529.44
2022-10-26T23:48:37.513Z,98535.41
2022-10-26T23:50:38.770Z,98531.13
2022-10-26T23:52:40.067Z,98534.63
2022-10-26T23:54:41.367Z,98530.34
2022-10-26T23:56:42.708Z,98532.13
2022-10-26T23:58:43.999Z,98526.25
